createdAt,value
2023-01-19T00:00:39.603Z,12.32
2023-01-19T00:03:06.089Z,12.55
2023-01-19T00:05:33.865Z,14.10
2023-01-19T00:08:14.499Z,10.77
2023-01-19T00:10:42.089Z,14.05
2023-01-19T00:13:08.415Z,14.60
2023-01-19T00:15:34.704Z,15.10
2023-01-19T00:18:01.040Z,13.52
2023-01-19T00:20:27.432Z,14.73
2023-01-19T00:22:53.765Z,13.10
2023-01-19T00:25:20.124Z,16.27
2023-01-19T00:27:49.425Z,15.27
2023-01-19T00:30:15.976Z,16.48
2023-01-19T00:32:42.241Z,13.95
2023-01-19T00:35:08.618Z,15.70
2023-01-19T00:37:34.902Z,14.43
2023-01-19T00:40:01.214Z,15.77
2023-01-19T00:42:48.152Z,13.80
2023-01-19T00:45:15.681Z,15.27
2023-01-19T00:47:41.975Z,14.45
2023-01-19T00:50:09.140Z,13.35
2023-01-19T00:52:35.468Z,15.30
2023-01-19T00:55:01.812Z,16.20
2023-01-19T00:57:49.982Z,15.15
2023-01-19T01:00:19.404Z,14.02
2023-01-19T01:02:46.115Z,14.07
2023-01-19T01:05:13.134Z,14.90
2023-01-19T01:07:44.619Z,16.08
2023-01-19T01:10:12.225Z,16.63
2023-01-19T01:12:38.885Z,14.70
2023-01-19T01:15:07.284Z,17.52
2023-01-19T01:17:33.627Z,15.38
2023-01-19T01:20:00.189Z,15.63
2023-01-19T01:22:26.577Z,17.00
2023-01-19T01:24:52.959Z,15.70
2023-01-19T01:27:19.228Z,14.95
2023-01-19T01:29:46.439Z,16.98
2023-01-19T01:32:16.687Z,18.30
2023-01-19T01:34:42.970Z,16.40
2023-01-19T01:37:09.287Z,16.85
2023-01-19T01:39:36.086Z,15.07
2023-01-19T01:42:02.872Z,13.70
2023-01-19T01:44:50.064Z,17.57
2023-01-19T01:47:36.736Z,17.05
2023-01-19T01:50:09.229Z,18.60
2023-01-19T01:52:37.549Z,17.27
2023-01-19T01:55:06.936Z,18.27
2023-01-19T01:57:36.847Z,17.40
2023-01-19T02:00:03.801Z,17.08
2023-01-19T02:02:50.642Z,18.42
2023-01-19T02:05:25.942Z,15.88
2023-01-19T02:08:19.580Z,17.48
2023-01-19T02:11:05.012Z,14.25
2023-01-19T02:13:32.882Z,12.57
2023-01-19T02:16:00.969Z,16.58
2023-01-19T02:18:28.714Z,15.48
2023-01-19T02:20:59.037Z,17.67
2023-01-19T02:23:36.698Z,12.57
2023-01-19T02:26:03.526Z,17.08
2023-01-19T02:28:30.859Z,16.65
2023-01-19T02:30:57.240Z,17.45
2023-01-19T02:33:23.689Z,17.50
2023-01-19T02:35:51.103Z,16.35
2023-01-19T02:38:18.712Z,16.60
2023-01-19T02:43:11.209Z,15.00
2023-01-19T02:45:38.860Z,14.93
2023-01-19T02:50:32.251Z,15.68
2023-01-19T02:53:04.822Z,16.67
2023-01-19T02:55:31.700Z,16.63
2023-01-19T02:58:07.359Z,15.73
2023-01-19T03:00:48.185Z,16.20
2023-01-19T03:03:22.932Z,16.02
2023-01-19T03:06:09.020Z,15.05
2023-01-19T03:08:35.372Z,15.02
2023-01-19T03:11:03.047Z,14.13
2023-01-19T03:15:59.440Z,16.27
2023-01-19T03:18:27.135Z,15.60
2023-01-19T03:23:20.909Z,15.93
2023-01-19T03:25:48.594Z,14.90
2023-01-19T03:30:45.899Z,14.15
2023-01-19T03:33:17.555Z,14.98
2023-01-19T03:35:48.853Z,15.15
2023-01-19T03:38:16.704Z,15.68
2023-01-19T03:40:43.712Z,14.93
2023-01-19T03:43:10.413Z,13.30
2023-01-19T03:45:38.249Z,15.90
2023-01-19T03:48:05.185Z,16.42
2023-01-19T03:50:31.887Z,14.55
2023-01-19T03:53:02.736Z,14.07
2023-01-19T03:55:29.273Z,12.05
2023-01-19T03:57:55.608Z,15.73
2023-01-19T04:00:21.964Z,13.32
2023-01-19T04:02:48.277Z,13.93
2023-01-19T04:05:15.282Z,14.32
2023-01-19T04:07:41.587Z,15.98
2023-01-19T04:10:12.569Z,12.82
2023-01-19T04:12:40.028Z,14.15
2023-01-19T04:15:06.714Z,14.05
2023-01-19T04:17:33.055Z,15.35
2023-01-19T04:20:00.393Z,14.32
2023-01-19T04:22:26.805Z,14.32
2023-01-19T04:24:53.366Z,15.77
2023-01-19T04:27:19.761Z,13.65
2023-01-19T04:29:46.091Z,15.40
2023-01-19T04:32:15.694Z,11.00
2023-01-19T04:34:42.032Z,13.00
2023-01-19T04:37:11.456Z,11.23
2023-01-19T04:39:37.845Z,9.32
2023-01-19T04:42:04.144Z,10.43
2023-01-19T04:44:30.420Z,10.52
2023-01-19T04:46:56.725Z,11.20
2023-01-19T04:49:23.015Z,9.43
2023-01-19T04:51:49.385Z,10.98
2023-01-19T04:54:15.747Z,8.30
2023-01-19T04:56:42.145Z,10.18
2023-01-19T04:59:08.438Z,8.75
2023-01-19T05:01:35.014Z,9.77
2023-01-19T05:04:02.059Z,8.32
2023-01-19T05:06:28.487Z,8.82
2023-01-19T05:08:54.813Z,8.23
2023-01-19T05:11:21.195Z,9.07
2023-01-19T05:13:47.528Z,8.32
2023-01-19T05:16:14.132Z,9.63
2023-01-19T05:18:40.490Z,8.95
2023-01-19T05:21:07.506Z,8.05
2023-01-19T05:23:33.821Z,7.43
2023-01-19T05:26:01.833Z,8.57
2023-01-19T05:28:29.344Z,6.93
2023-01-19T05:30:55.934Z,5.82
2023-01-19T05:33:22.956Z,6.50
2023-01-19T05:35:53.521Z,7.27
2023-01-19T05:38:29.329Z,7.50
2023-01-19T05:41:00.355Z,5.30
2023-01-19T05:43:26.752Z,4.85
2023-01-19T05:45:53.037Z,4.65
2023-01-19T05:48:19.413Z,3.83
2023-01-19T05:50:45.749Z,3.95
2023-01-19T05:53:12.128Z,4.82
2023-01-19T05:55:38.402Z,4.28
2023-01-19T05:58:04.711Z,3.50
2023-01-19T06:00:31.076Z,3.08
2023-01-19T06:02:57.497Z,3.72
2023-01-19T06:05:23.925Z,3.05
2023-01-19T06:07:50.293Z,3.30
2023-01-19T06:10:16.677Z,3.88
2023-01-19T06:12:42.939Z,3.30
2023-01-19T06:15:09.401Z,2.90
2023-01-19T06:17:36.101Z,2.97
2023-01-19T06:20:02.912Z,2.83
2023-01-19T06:22:29.318Z,2.95
2023-01-19T06:24:55.583Z,3.08
2023-01-19T06:27:21.846Z,3.17
2023-01-19T06:29:48.254Z,4.45
2023-01-19T06:32:14.565Z,3.90
2023-01-19T06:34:43.709Z,3.42
2023-01-19T06:37:14.146Z,3.65
2023-01-19T06:39:41.081Z,3.13
2023-01-19T06:42:07.666Z,4.63
2023-01-19T06:44:33.978Z,4.13
2023-01-19T06:47:15.184Z,3.78
2023-01-19T06:49:42.549Z,3.95
2023-01-19T06:52:09.754Z,5.88
2023-01-19T06:54:36.011Z,5.97
2023-01-19T06:57:02.826Z,4.60
2023-01-19T06:59:29.834Z,4.03
2023-01-19T07:01:56.904Z,4.88
2023-01-19T07:04:23.376Z,4.43
2023-01-19T07:06:49.973Z,4.95
2023-01-19T07:09:17.099Z,5.18
2023-01-19T07:11:43.422Z,5.75
2023-01-19T07:14:09.719Z,4.78
2023-01-19T07:16:36.020Z,4.45
2023-01-19T07:19:02.344Z,4.80
2023-01-19T07:21:29.408Z,4.82
2023-01-19T07:23:56.030Z,5.28
2023-01-19T07:26:24.958Z,4.90
2023-01-19T07:28:52.152Z,4.63
2023-01-19T07:31:19.151Z,5.97
2023-01-19T07:33:45.873Z,4.65
2023-01-19T07:36:12.435Z,4.30
2023-01-19T07:38:38.779Z,4.03
2023-01-19T07:41:06.308Z,3.75
2023-01-19T07:43:33.331Z,3.63
2023-01-19T07:46:00.485Z,5.07
2023-01-19T07:48:27.339Z,4.30
2023-01-19T07:50:53.909Z,5.22
2023-01-19T07:53:20.377Z,5.82
2023-01-19T07:55:46.740Z,4.93
2023-01-19T07:58:13.077Z,4.13
2023-01-19T08:00:39.666Z,3.67
2023-01-19T08:03:05.946Z,4.18
2023-01-19T08:05:33.188Z,3.63
2023-01-19T08:08:00.364Z,3.92
2023-01-19T08:10:27.687Z,3.63
2023-01-19T08:12:54.623Z,4.18
2023-01-19T08:15:23.946Z,4.07
2023-01-19T08:18:00.809Z,3.47
2023-01-19T08:20:27.835Z,3.17
2023-01-19T08:23:01.318Z,2.53
2023-01-19T08:25:42.307Z,2.47
2023-01-19T08:28:09.273Z,2.95
2023-01-19T08:30:35.735Z,2.95
2023-01-19T08:33:07.319Z,2.55
2023-01-19T08:35:35.082Z,3.72
2023-01-19T08:38:01.712Z,3.05
2023-01-19T08:40:29.182Z,3.67
2023-01-19T08:43:03.534Z,3.47
2023-01-19T08:45:31.140Z,3.67
2023-01-19T08:48:00.692Z,3.42
2023-01-19T08:50:27.427Z,3.33
2023-01-19T08:52:55.773Z,2.57
2023-01-19T08:55:22.166Z,2.97
2023-01-19T08:57:50.858Z,3.58
2023-01-19T09:00:17.575Z,3.25
2023-01-19T09:02:43.978Z,2.83
2023-01-19T09:05:10.357Z,3.20
2023-01-19T09:07:37.100Z,3.85
2023-01-19T09:10:04.402Z,3.33
2023-01-19T09:12:30.721Z,2.95
2023-01-19T09:14:57.047Z,3.38
2023-01-19T09:17:23.448Z,4.28
2023-01-19T09:19:49.712Z,3.10
2023-01-19T09:22:16.044Z,2.85
2023-01-19T09:24:42.354Z,3.67
2023-01-19T09:27:08.779Z,3.15
2023-01-19T09:29:36.190Z,2.63
2023-01-19T09:32:02.695Z,2.65
2023-01-19T09:34:28.981Z,2.70
2023-01-19T09:36:55.379Z,3.92
2023-01-19T09:39:22.112Z,3.30
2023-01-19T09:41:51.231Z,3.97
2023-01-19T09:44:21.507Z,5.80
2023-01-19T09:46:48.520Z,4.97
2023-01-19T09:49:35.082Z,5.07
2023-01-19T09:52:01.601Z,6.05
2023-01-19T09:54:57.293Z,5.85
2023-01-19T09:57:25.046Z,5.57
2023-01-19T09:59:51.648Z,7.78
2023-01-19T10:02:34.986Z,6.10
2023-01-19T10:05:02.664Z,6.82
2023-01-19T10:10:14.208Z,6.20
2023-01-19T10:13:02.951Z,5.40
2023-01-19T10:18:11.477Z,5.80
2023-01-19T10:20:41.572Z,7.63
2023-01-19T10:23:18.870Z,6.07
2023-01-19T10:25:45.813Z,6.38
2023-01-19T10:28:13.576Z,6.75
2023-01-19T10:30:42.497Z,6.22
2023-01-19T10:33:11.531Z,5.65
2023-01-19T10:35:37.836Z,5.88
2023-01-19T10:38:04.694Z,5.45
2023-01-19T10:40:37.429Z,4.07
2023-01-19T10:43:24.057Z,4.25
2023-01-19T10:45:50.706Z,4.10
2023-01-19T10:48:17.069Z,3.70
2023-01-19T10:50:43.355Z,4.13
2023-01-19T10:53:20.564Z,4.55
2023-01-19T10:55:46.958Z,3.53
2023-01-19T10:58:30.388Z,4.55
2023-01-19T11:01:11.885Z,3.92
2023-01-19T11:03:38.297Z,3.33
2023-01-19T11:06:13.844Z,4.75
2023-01-19T11:08:40.175Z,4.72
2023-01-19T11:11:08.584Z,4.78
2023-01-19T11:13:35.518Z,5.63
2023-01-19T11:16:05.114Z,4.80
2023-01-19T11:18:38.552Z,6.13
2023-01-19T11:21:06.976Z,4.90
2023-01-19T11:23:37.564Z,5.50
2023-01-19T11:26:05.525Z,5.20
2023-01-19T11:28:33.169Z,5.55
2023-01-19T11:33:32.244Z,5.05
2023-01-19T11:36:02.850Z,4.43
2023-01-19T11:38:29.262Z,5.57
2023-01-19T11:40:57.100Z,4.80
2023-01-19T11:43:25.241Z,3.35
2023-01-19T11:45:51.757Z,4.70
2023-01-19T11:48:30.468Z,4.13
2023-01-19T11:50:58.503Z,4.57
2023-01-19T11:53:30.498Z,4.53
2023-01-19T11:56:03.101Z,3.63
2023-01-19T11:58:30.333Z,4.78
2023-01-19T12:01:00.487Z,4.60
2023-01-19T12:03:37.062Z,4.28
2023-01-19T12:06:12.446Z,3.88
2023-01-19T12:08:51.554Z,4.30
2023-01-19T12:11:20.692Z,3.55
2023-01-19T12:13:47.781Z,3.67
2023-01-19T12:16:19.860Z,4.30
2023-01-19T12:18:50.983Z,4.63
2023-01-19T12:21:18.181Z,3.90
2023-01-19T12:23:55.641Z,2.75
2023-01-19T12:26:35.027Z,3.08
2023-01-19T12:29:24.116Z,2.88
2023-01-19T12:32:09.806Z,2.88
2023-01-19T12:34:40.546Z,2.90
2023-01-19T12:37:26.857Z,2.97
2023-01-19T12:39:54.341Z,2.15
2023-01-19T12:44:48.065Z,2.03
2023-01-19T12:47:14.398Z,2.63
2023-01-19T12:49:41.891Z,2.22
2023-01-19T12:54:34.525Z,2.67
2023-01-19T12:57:02.474Z,2.40
2023-01-19T12:59:29.931Z,2.60
2023-01-19T13:04:30.217Z,2.40
2023-01-19T13:07:05.738Z,2.50
2023-01-19T13:09:32.975Z,2.55
2023-01-19T13:12:14.661Z,2.47
2023-01-19T13:14:42.355Z,3.20
2023-01-19T13:17:27.714Z,2.22
2023-01-19T13:19:57.214Z,3.30
2023-01-19T13:23:02.304Z,2.90
2023-01-19T13:25:34.159Z,2.90
2023-01-19T13:28:01.144Z,3.22
2023-01-19T13:30:28.513Z,2.97
2023-01-19T13:35:22.419Z,3.55
2023-01-19T13:40:21.742Z,3.13
2023-01-19T13:42:48.558Z,3.38
2023-01-19T13:45:27.573Z,3.30
2023-01-19T13:47:54.806Z,3.50
2023-01-19T13:50:22.379Z,4.07
2023-01-19T13:52:51.242Z,4.28
2023-01-19T13:55:18.641Z,4.15
2023-01-19T14:00:22.138Z,4.63
2023-01-19T14:02:59.201Z,4.68
2023-01-19T14:05:30.306Z,4.45
2023-01-19T14:08:02.927Z,5.32
2023-01-19T14:10:31.245Z,4.88
2023-01-19T14:12:59.495Z,6.57
2023-01-19T14:15:26.346Z,7.05
2023-01-19T14:18:20.947Z,7.77
2023-01-19T14:20:58.324Z,7.80
2023-01-19T14:23:38.429Z,8.15
2023-01-19T14:26:05.077Z,8.10
2023-01-19T14:28:35.658Z,8.37
2023-01-19T14:31:18.643Z,8.60
2023-01-19T14:33:46.980Z,7.80
2023-01-19T14:36:23.606Z,8.95
2023-01-19T14:38:51.386Z,8.05
2023-01-19T14:41:26.959Z,8.73
2023-01-19T14:43:55.966Z,8.73
2023-01-19T14:46:22.695Z,9.82
2023-01-19T14:48:50.185Z,9.03
2023-01-19T14:51:18.324Z,9.07
2023-01-19T14:53:50.157Z,9.57
2023-01-19T14:56:30.516Z,9.80
2023-01-19T14:58:57.579Z,8.98
2023-01-19T15:01:24.985Z,7.65
2023-01-19T15:03:51.417Z,8.93
2023-01-19T15:06:19.075Z,9.35
2023-01-19T15:11:17.800Z,8.20
2023-01-19T15:13:44.565Z,8.32
2023-01-19T15:16:11.058Z,8.05
2023-01-19T15:18:38.481Z,8.80
2023-01-19T15:21:04.947Z,9.38
2023-01-19T15:23:31.932Z,10.60
2023-01-19T15:26:02.208Z,10.55
2023-01-19T15:28:28.630Z,9.48
2023-01-19T15:30:55.185Z,10.00
2023-01-19T15:33:22.608Z,10.50
2023-01-19T15:35:49.520Z,11.02
2023-01-19T15:38:15.905Z,11.57
2023-01-19T15:40:42.519Z,10.57
2023-01-19T15:43:11.786Z,9.43
2023-01-19T15:45:47.849Z,9.43
2023-01-19T15:48:14.455Z,9.52
2023-01-19T15:50:44.388Z,10.10
2023-01-19T15:53:15.287Z,9.57
2023-01-19T15:55:41.864Z,10.73
2023-01-19T15:58:08.519Z,10.73
2023-01-19T16:00:35.153Z,9.43
2023-01-19T16:03:02.369Z,9.32
2023-01-19T16:05:41.997Z,8.00
2023-01-19T16:08:09.289Z,8.38
2023-01-19T16:10:35.623Z,8.23
2023-01-19T16:13:03.526Z,8.35
2023-01-19T16:15:29.822Z,9.45
2023-01-19T16:17:56.150Z,8.30
2023-01-19T16:20:22.527Z,7.97
2023-01-19T16:22:48.806Z,8.45
2023-01-19T16:25:15.116Z,6.68
2023-01-19T16:27:41.539Z,6.55
2023-01-19T16:30:10.192Z,5.72
2023-01-19T16:32:39.995Z,5.70
2023-01-19T16:35:06.413Z,9.82
2023-01-19T16:37:32.806Z,6.25
2023-01-19T16:39:59.128Z,6.90
2023-01-19T16:42:25.562Z,5.63
2023-01-19T16:44:52.019Z,6.78
2023-01-19T16:47:18.321Z,6.40
2023-01-19T16:49:44.668Z,6.85
2023-01-19T16:52:11.022Z,7.18
2023-01-19T16:54:39.345Z,8.77
2023-01-19T16:57:05.771Z,9.10
2023-01-19T16:59:32.227Z,8.73
2023-01-19T17:01:58.650Z,8.10
2023-01-19T17:04:25.132Z,8.00
2023-01-19T17:06:51.528Z,10.02
2023-01-19T17:09:18.103Z,8.93
2023-01-19T17:11:44.919Z,11.02
2023-01-19T17:14:15.975Z,11.75
2023-01-19T17:16:42.972Z,10.98
2023-01-19T17:19:12.707Z,11.65
2023-01-19T17:21:39.096Z,11.70
2023-01-19T17:24:05.499Z,12.40
2023-01-19T17:26:31.938Z,11.93
2023-01-19T17:28:59.617Z,12.25
2023-01-19T17:33:52.822Z,11.00
2023-01-19T17:36:22.284Z,12.82
2023-01-19T17:38:49.203Z,14.75
2023-01-19T17:41:16.539Z,14.57
2023-01-19T17:43:43.430Z,14.00
2023-01-19T17:46:10.569Z,14.98
2023-01-19T17:48:37.474Z,15.63
2023-01-19T17:51:08.322Z,15.35
2023-01-19T17:53:36.567Z,16.60
2023-01-19T17:56:04.096Z,16.60
2023-01-19T17:58:31.429Z,17.02
2023-01-19T18:00:58.263Z,17.10
2023-01-19T18:03:24.765Z,17.67
2023-01-19T18:05:54.652Z,18.55
2023-01-19T18:08:21.258Z,18.48
2023-01-19T18:10:57.169Z,18.77
2023-01-19T18:13:23.540Z,18.50
2023-01-19T18:15:51.475Z,20.95
2023-01-19T18:18:17.850Z,19.60
2023-01-19T18:20:46.896Z,20.42
2023-01-19T18:23:13.995Z,19.98
2023-01-19T18:25:40.468Z,18.48
2023-01-19T18:28:07.173Z,19.85
2023-01-19T18:30:37.066Z,20.87
2023-01-19T18:33:03.595Z,19.27
2023-01-19T18:35:29.988Z,19.77
2023-01-19T18:37:58.526Z,20.90
2023-01-19T18:40:24.962Z,20.08
2023-01-19T18:42:51.498Z,21.08
2023-01-19T18:45:17.921Z,21.92
2023-01-19T18:47:44.415Z,20.45
2023-01-19T18:50:12.853Z,22.38
2023-01-19T18:52:39.870Z,22.55
2023-01-19T18:55:06.417Z,20.67
2023-01-19T18:57:33.918Z,21.30
2023-01-19T19:00:00.384Z,22.08
2023-01-19T19:02:26.698Z,21.35
2023-01-19T19:04:52.966Z,22.65
2023-01-19T19:07:19.297Z,25.23
2023-01-19T19:09:45.652Z,21.77
2023-01-19T19:12:11.981Z,22.98
2023-01-19T19:14:38.338Z,22.08
2023-01-19T19:17:04.847Z,20.95
2023-01-19T19:19:31.188Z,21.38
2023-01-19T19:21:57.506Z,21.95
2023-01-19T19:24:24.070Z,22.95
2023-01-19T19:26:50.389Z,22.17
2023-01-19T19:29:16.780Z,23.63
2023-01-19T19:31:43.206Z,22.70
2023-01-19T19:34:12.308Z,20.60
2023-01-19T19:36:39.117Z,17.13
2023-01-19T19:39:05.636Z,23.73
2023-01-19T19:41:32.526Z,20.80
2023-01-19T19:43:58.931Z,21.20
2023-01-19T19:46:26.000Z,22.13
2023-01-19T19:48:52.843Z,20.55
2023-01-19T19:51:23.658Z,22.27
2023-01-19T19:53:51.758Z,23.70
2023-01-19T19:56:20.962Z,22.15
2023-01-19T19:58:47.803Z,23.30
2023-01-19T20:01:15.890Z,23.80
2023-01-19T20:03:42.616Z,22.75
2023-01-19T20:06:13.339Z,23.77
2023-01-19T20:08:39.887Z,23.67
2023-01-19T20:11:16.593Z,23.95
2023-01-19T20:13:43.827Z,21.70
2023-01-19T20:16:11.570Z,25.65
2023-01-19T20:18:38.753Z,19.80
2023-01-19T20:21:12.715Z,21.65
2023-01-19T20:23:39.171Z,17.85
2023-01-19T20:26:07.170Z,22.40
2023-01-19T20:28:34.270Z,22.92
2023-01-19T20:31:14.443Z,24.20
2023-01-19T20:33:41.264Z,24.80
2023-01-19T20:36:08.392Z,22.50
2023-01-19T20:38:34.720Z,24.20
2023-01-19T20:41:01.101Z,23.30
2023-01-19T20:43:28.237Z,24.38
2023-01-19T20:45:54.559Z,25.38
2023-01-19T20:48:20.901Z,25.83
2023-01-19T20:50:47.656Z,22.40
2023-01-19T20:53:13.980Z,24.47
2023-01-19T20:55:40.287Z,24.95
2023-01-19T20:58:06.661Z,24.65
2023-01-19T21:00:33.250Z,25.60
2023-01-19T21:02:59.963Z,25.20
2023-01-19T21:05:26.322Z,24.30
2023-01-19T21:07:52.701Z,25.10
2023-01-19T21:10:19.004Z,22.85
2023-01-19T21:12:45.255Z,23.83
2023-01-19T21:15:11.799Z,27.00
2023-01-19T21:17:38.252Z,26.30
2023-01-19T21:20:04.779Z,21.58
2023-01-19T21:22:31.135Z,24.67
2023-01-19T21:24:57.513Z,26.02
2023-01-19T21:27:23.836Z,24.10
2023-01-19T21:29:50.167Z,25.90
2023-01-19T21:32:16.549Z,27.60
2023-01-19T21:34:43.788Z,24.15
2023-01-19T21:37:10.209Z,24.58
2023-01-19T21:39:36.533Z,24.48
2023-01-19T21:42:02.836Z,26.88
2023-01-19T21:44:29.211Z,25.15
2023-01-19T21:46:55.769Z,25.20
2023-01-19T21:49:22.137Z,21.42
2023-01-19T21:51:50.512Z,23.02
2023-01-19T21:54:17.418Z,24.10
2023-01-19T21:56:43.822Z,24.10
2023-01-19T21:59:14.752Z,22.90
2023-01-19T22:01:41.804Z,25.17
2023-01-19T22:04:08.238Z,23.88
2023-01-19T22:06:34.672Z,23.80
2023-01-19T22:09:01.048Z,25.27
2023-01-19T22:11:27.843Z,24.50
2023-01-19T22:13:54.185Z,24.83
2023-01-19T22:16:21.883Z,23.33
2023-01-19T22:18:52.906Z,26.55
2023-01-19T22:21:19.309Z,26.17
2023-01-19T22:23:48.529Z,25.67
2023-01-19T22:26:14.865Z,23.80
2023-01-19T22:28:41.154Z,25.30
2023-01-19T22:31:08.880Z,23.23
2023-01-19T22:33:35.985Z,23.67
2023-01-19T22:36:09.174Z,25.38
2023-01-19T22:38:35.430Z,25.77
2023-01-19T22:41:01.693Z,25.73
2023-01-19T22:43:27.997Z,26.27
2023-01-19T22:45:55.846Z,26.00
2023-01-19T22:48:22.275Z,25.73
2023-01-19T22:50:48.599Z,25.35
2023-01-19T22:53:14.900Z,24.52
2023-01-19T22:55:41.187Z,26.38
2023-01-19T22:58:07.489Z,25.70
2023-01-19T23:00:33.876Z,24.25
2023-01-19T23:03:00.135Z,26.67
2023-01-19T23:05:26.452Z,28.58
2023-01-19T23:07:52.785Z,27.58
2023-01-19T23:10:19.046Z,27.15
2023-01-19T23:12:46.632Z,28.02
2023-01-19T23:17:39.546Z,24.08
2023-01-19T23:20:06.152Z,25.15
2023-01-19T23:22:32.488Z,25.67
2023-01-19T23:24:58.773Z,26.83
2023-01-19T23:27:25.063Z,27.13
2023-01-19T23:29:52.642Z,25.92
2023-01-19T23:32:18.929Z,25.50
2023-01-19T23:34:45.213Z,24.88
2023-01-19T23:37:11.566Z,26.77
2023-01-19T23:39:37.902Z,26.85
2023-01-19T23:42:05.053Z,25.17
2023-01-19T23:44:31.333Z,24.80
2023-01-19T23:46:58.075Z,25.00
2023-01-19T23:49:24.434Z,27.30
2023-01-19T23:51:50.709Z,28.60
2023-01-19T23:54:17.051Z,26.40
2023-01-19T23:56:43.431Z,27.58
2023-01-19T23:59:11.039Z,26.58
